Time;durP1;ratioP1;P1;durP2;ratioP2;P2;SDS_P1;SDS_P2;PMS_P1;PMS_P2;Temp;Humidity;BMP_temperature;BMP_pressure;BME280_temperature;BME280_humidity;BME280_pressure;Samples;Min_cycle;Max_cycle;Signal;HPM_P1;HPM_P2
2022/09/21 00:01:19;;;;;;;8.93;1.77;;;7.40;99.90;;;;;;5055938;28;20079;-80
2022/09/21 00:03:47;;;;;;;5.55;2.17;;;7.40;99.90;;;;;;5088533;28;20045;-80
2022/09/21 00:06:16;;;;;;;5.88;2.05;;;7.40;99.90;;;;;;5055446;28;20030;-81
2022/09/21 00:08:44;;;;;;;3.22;1.58;;;7.40;99.90;;;;;;5088818;28;20138;-81
2022/09/21 00:11:13;;;;;;;10.52;2.00;;;7.40;99.90;;;;;;5055499;28;20041;-80
2022/09/21 00:13:40;;;;;;;4.45;1.70;;;7.30;99.90;;;;;;5055047;28;20054;-81
2022/09/21 00:16:08;;;;;;;3.92;1.77;;;7.30;99.90;;;;;;5088580;28;20049;-80
2022/09/21 00:18:35;;;;;;;3.10;1.60;;;7.30;99.90;;;;;;5039010;28;20085;-80
2022/09/21 00:21:07;;;;;;;3.30;1.67;;;7.30;99.90;;;;;;5055527;28;20405;-80
2022/09/21 00:23:35;;;;;;;6.47;1.98;;;7.20;99.90;;;;;;5055142;28;20492;-80
2022/09/21 00:26:06;;;;;;;5.47;1.95;;;7.20;99.90;;;;;;5055763;28;20041;-80
2022/09/21 00:28:33;;;;;;;5.50;1.55;;;7.20;99.90;;;;;;5068346;28;20050;-80
2022/09/21 00:31:03;;;;;;;3.42;1.58;;;7.20;99.90;;;;;;5052271;28;20037;-80
2022/09/21 00:33:30;;;;;;;8.05;1.65;;;7.20;99.90;;;;;;5052341;28;20033;-80
2022/09/21 00:36:02;;;;;;;4.55;1.58;;;7.20;99.90;;;;;;5051969;28;20099;-81
2022/09/21 00:38:29;;;;;;;6.15;1.75;;;7.20;99.90;;;;;;5051499;28;20042;-80
2022/09/21 00:40:56;;;;;;;4.07;1.70;;;7.10;99.90;;;;;;5035426;28;20045;-80
2022/09/21 00:43:23;;;;;;;5.57;1.83;;;7.10;99.90;;;;;;5068056;28;20042;-81
2022/09/21 00:46:04;;;;;;;5.60;1.77;;;7.10;99.90;;;;;;5051764;28;20095;-80
2022/09/21 00:48:32;;;;;;;4.85;2.10;;;7.10;99.90;;;;;;5084287;28;20497;-81
2022/09/21 00:51:03;;;;;;;4.85;1.75;;;7.10;99.90;;;;;;5051668;28;20132;-80
2022/09/21 00:53:31;;;;;;;6.07;1.95;;;7.10;99.90;;;;;;5051539;28;20147;-80
2022/09/21 00:55:59;;;;;;;3.83;1.75;;;7.10;99.90;;;;;;5035670;28;20037;-80
2022/09/21 00:58:31;;;;;;;4.30;1.90;;;7.10;99.90;;;;;;5035590;28;20033;-80
2022/09/21 01:00:59;;;;;;;6.10;1.90;;;7.10;99.90;;;;;;5084919;28;20057;-80
2022/09/21 01:03:29;;;;;;;6.78;2.00;;;7.00;99.90;;;;;;5051385;28;20084;-80
2022/09/21 01:05:56;;;;;;;4.70;1.80;;;7.10;99.90;;;;;;5051548;28;20068;-80
2022/09/21 01:08:25;;;;;;;4.63;1.58;;;7.00;99.90;;;;;;5031434;28;20046;-81
2022/09/21 01:11:24;;;;;;;5.97;1.98;;;7.00;99.90;;;;;;5031613;28;20045;-80
2022/09/21 01:14:23;;;;;;;6.15;1.90;;;7.00;99.90;;;;;;5031810;28;20088;-80
2022/09/21 01:17:07;;;;;;;5.72;1.75;;;7.00;99.90;;;;;;5031674;28;20056;-80
2022/09/21 01:19:59;;;;;;;5.45;1.80;;;6.90;99.90;;;;;;5031285;28;20038;-80
2022/09/21 01:22:58;;;;;;;6.18;1.88;;;6.90;99.90;;;;;;5031271;28;20430;-81
2022/09/21 01:25:53;;;;;;;5.13;1.88;;;6.90;99.90;;;;;;5031862;28;20034;-81
2022/09/21 01:28:23;;;;;;;9.05;1.77;;;6.90;99.90;;;;;;5031599;28;20437;-80
2022/09/21 01:30:52;;;;;;;6.90;2.05;;;6.90;99.90;;;;;;5050102;28;20041;-80
2022/09/21 01:33:29;;;;;;;3.95;1.85;;;6.80;99.90;;;;;;5067504;28;20038;-80
2022/09/21 01:36:04;;;;;;;7.47;2.10;;;6.80;99.90;;;;;;5067800;28;20041;-80
2022/09/21 01:38:42;;;;;;;5.18;2.50;;;6.80;99.90;;;;;;5067396;28;20112;-80
2022/09/21 01:41:12;;;;;;;4.65;2.10;;;6.80;99.90;;;;;;5066704;28;20049;-81
2022/09/21 01:43:42;;;;;;;4.32;2.00;;;6.80;99.90;;;;;;5050239;28;20512;-81
2022/09/21 01:46:14;;;;;;;5.15;1.80;;;6.80;99.90;;;;;;5083591;28;20048;-80
2022/09/21 01:48:46;;;;;;;5.45;1.88;;;6.80;99.90;;;;;;5050165;28;20045;-80
2022/09/21 01:51:16;;;;;;;4.95;1.63;;;6.70;99.90;;;;;;5050609;28;20042;-80
2022/09/21 01:53:51;;;;;;;3.75;1.75;;;6.70;99.90;;;;;;5083457;28;20405;-80
2022/09/21 01:56:24;;;;;;;4.93;1.83;;;6.70;99.90;;;;;;5067009;28;20533;-80
2022/09/21 01:59:21;;;;;;;5.32;1.80;;;6.70;99.90;;;;;;5050374;28;20080;-81
2022/09/21 02:01:52;;;;;;;;;;;6.70;99.90;;;;;;5016704;28;20053;-80
2022/09/21 02:04:19;;;;;;;5.55;1.80;;;6.70;99.90;;;;;;5063410;28;19963;-80
2022/09/21 02:06:48;;;;;;;4.13;1.88;;;6.70;99.90;;;;;;5016434;28;20489;-80
2022/09/21 02:09:16;;;;;;;4.55;1.88;;;6.80;99.90;;;;;;5034507;28;20045;-80
2022/09/21 02:11:43;;;;;;;4.70;1.80;;;6.60;99.90;;;;;;5040757;28;20125;-81
2022/09/21 02:14:15;;;;;;;4.60;2.00;;;6.60;99.90;;;;;;5014008;28;20546;-80
2022/09/21 02:17:06;;;;;;;3.95;1.90;;;6.60;99.90;;;;;;5046981;28;20049;-81
2022/09/21 02:19:37;;;;;;;4.30;1.90;;;6.60;99.90;;;;;;5030085;28;20053;-81
2022/09/21 02:22:11;;;;;;;4.43;1.90;;;6.60;99.90;;;;;;5054644;28;20116;-80
2022/09/21 02:24:49;;;;;;;10.85;2.13;;;6.70;99.90;;;;;;5049857;28;20046;-80
2022/09/21 02:27:31;;;;;;;3.17;1.70;;;6.60;99.90;;;;;;5050477;28;20076;-81
2022/09/21 02:30:15;;;;;;;4.35;1.90;;;6.50;99.90;;;;;;5049806;28;20107;-81
2022/09/21 02:32:57;;;;;;;7.18;2.25;;;6.50;99.90;;;;;;5049742;28;20037;-80
2022/09/21 02:35:42;;;;;;;4.78;1.77;;;6.50;99.90;;;;;;5066309;28;20045;-81
2022/09/21 02:38:34;;;;;;;4.03;1.90;;;6.50;99.90;;;;;;5066007;28;20037;-80
2022/09/21 02:41:18;;;;;;;4.25;1.70;;;6.50;99.90;;;;;;5049768;28;20413;-80
2022/09/21 02:43:48;;;;;;;3.90;2.30;;;6.50;99.90;;;;;;5066014;28;20053;-80
2022/09/21 02:46:23;;;;;;;6.22;1.92;;;6.40;99.90;;;;;;5066008;28;20041;-80
2022/09/21 02:49:08;;;;;;;4.63;1.80;;;6.50;99.90;;;;;;5066157;28;20038;-80
2022/09/21 02:51:40;;;;;;;3.65;1.67;;;6.40;99.90;;;;;;5082065;28;20449;-80
2022/09/21 02:54:11;;;;;;;4.03;1.92;;;6.50;99.90;;;;;;5066192;28;20044;-80
2022/09/21 02:56:40;;;;;;;3.90;1.83;;;6.90;99.90;;;;;;5049220;28;20042;-81
2022/09/21 02:59:07;;;;;;;6.18;1.90;;;6.90;99.90;;;;;;5049892;28;20060;-80
2022/09/21 03:01:35;;;;;;;4.05;1.70;;;7.00;99.90;;;;;;5049609;28;20048;-80
2022/09/21 03:04:01;;;;;;;5.55;1.95;;;6.50;99.90;;;;;;5049473;28;20045;-81
2022/09/21 03:06:28;;;;;;;3.58;1.73;;;6.50;99.90;;;;;;5049825;28;20052;-80
2022/09/21 03:08:56;;;;;;;4.07;1.95;;;6.70;99.90;;;;;;5049196;28;20172;-81
2022/09/21 03:11:24;;;;;;;5.45;1.60;;;6.40;99.90;;;;;;5049562;28;20554;-80
2022/09/21 03:13:50;;;;;;;5.47;1.70;;;6.40;99.90;;;;;;5082047;28;20037;-81
2022/09/21 03:16:17;;;;;;;3.60;1.80;;;6.60;99.90;;;;;;5049726;28;20048;-80
2022/09/21 03:18:44;;;;;;;6.88;1.98;;;6.80;99.90;;;;;;5049391;28;20037;-80
2022/09/21 03:21:11;;;;;;;8.38;1.80;;;6.30;99.90;;;;;;5033145;28;20087;-80
2022/09/21 03:23:41;;;;;;;6.03;1.75;;;6.40;99.90;;;;;;5049423;28;20417;-80
2022/09/21 03:26:08;;;;;;;5.95;1.52;;;6.30;99.90;;;;;;5049430;28;20048;-80
2022/09/21 03:28:34;;;;;;;4.03;1.60;;;6.30;99.90;;;;;;5033000;28;20041;-80
2022/09/21 03:31:01;;;;;;;5.22;1.67;;;6.70;99.90;;;;;;5049031;28;20141;-80
2022/09/21 03:33:28;;;;;;;4.40;1.85;;;6.40;99.90;;;;;;5049256;28;20037;-80
2022/09/21 03:35:54;;;;;;;5.35;1.65;;;6.30;99.90;;;;;;5028933;28;20034;-81
2022/09/21 03:38:21;;;;;;;2.67;1.38;;;6.30;99.90;;;;;;5029169;28;20042;-80
2022/09/21 03:40:48;;;;;;;3.10;1.67;;;6.30;99.90;;;;;;5029183;28;20125;-81
2022/09/21 03:43:16;;;;;;;6.15;1.63;;;6.30;99.90;;;;;;5029326;28;20045;-81
2022/09/21 03:45:43;;;;;;;3.90;1.65;;;6.30;99.90;;;;;;5031853;28;20049;-80
2022/09/21 03:48:11;;;;;;;4.60;1.77;;;6.20;99.90;;;;;;5049219;28;20045;-80
2022/09/21 03:50:38;;;;;;;3.58;1.55;;;6.30;99.90;;;;;;5049356;28;20049;-80
2022/09/21 03:53:06;;;;;;;4.95;1.70;;;6.20;99.90;;;;;;5032624;28;20588;-80
2022/09/21 03:55:33;;;;;;;4.03;1.58;;;6.20;99.90;;;;;;5048887;28;20087;-80
2022/09/21 03:58:00;;;;;;;5.57;2.10;;;6.20;99.90;;;;;;5048657;28;20033;-80
2022/09/21 04:00:28;;;;;;;4.35;1.90;;;6.10;99.90;;;;;;5049278;28;20034;-81
2022/09/21 04:02:54;;;;;;;5.82;1.85;;;6.80;99.90;;;;;;5050074;28;20084;-80
2022/09/21 04:05:21;;;;;;;6.47;1.77;;;6.10;99.90;;;;;;5069186;28;20501;-81
2022/09/21 04:07:48;;;;;;;6.03;1.70;;;6.10;99.90;;;;;;5052456;28;20053;-81
2022/09/21 04:10:18;;;;;;;3.90;1.90;;;6.10;99.90;;;;;;5052859;28;20049;-80
2022/09/21 04:12:46;;;;;;;4.38;1.63;;;6.10;99.90;;;;;;5052681;28;20115;-80
2022/09/21 04:15:17;;;;;;;2.55;1.33;;;6.10;99.90;;;;;;5052113;28;20054;-80
2022/09/21 04:17:45;;;;;;;3.05;1.60;;;6.00;99.90;;;;;;5052837;28;20067;-80
2022/09/21 04:20:12;;;;;;;2.65;1.33;;;6.10;99.90;;;;;;5052394;28;20037;-80
2022/09/21 04:22:39;;;;;;;3.78;1.80;;;6.00;99.90;;;;;;5035928;28;20037;-80
2022/09/21 04:25:05;;;;;;;4.53;1.70;;;6.00;99.90;;;;;;5036103;28;20048;-80
2022/09/21 04:27:32;;;;;;;5.20;1.80;;;6.00;99.90;;;;;;5052656;28;20044;-81
2022/09/21 04:29:59;;;;;;;4.18;1.70;;;6.10;99.90;;;;;;5051893;28;20041;-81
2022/09/21 04:32:26;;;;;;;2.95;1.60;;;6.70;99.90;;;;;;5051773;28;20632;-81
2022/09/21 04:34:53;;;;;;;4.70;1.48;;;6.00;99.90;;;;;;5035544;28;20037;-81
2022/09/21 04:37:19;;;;;;;4.90;1.70;;;6.00;99.90;;;;;;5052024;28;20087;-80
2022/09/21 04:39:46;;;;;;;2.90;1.50;;;6.00;99.90;;;;;;5031975;28;20041;-81
2022/09/21 04:42:13;;;;;;;4.32;1.75;;;6.00;99.90;;;;;;5031939;28;20049;-80
2022/09/21 04:44:39;;;;;;;4.05;1.73;;;6.00;99.90;;;;;;5048686;28;20044;-80
2022/09/21 04:47:06;;;;;;;4.13;1.52;;;6.10;99.90;;;;;;5031919;28;20041;-80
2022/09/21 04:49:33;;;;;;;4.15;1.50;;;6.00;99.90;;;;;;5039197;28;20103;-80
2022/09/21 04:52:00;;;;;;;4.05;1.60;;;6.00;99.90;;;;;;5051553;28;20073;-80
2022/09/21 04:54:26;;;;;;;2.95;1.48;;;6.00;99.90;;;;;;5068024;28;20060;-80
2022/09/21 04:56:53;;;;;;;3.35;1.52;;;5.90;99.90;;;;;;5035273;28;20409;-82
2022/09/21 04:59:20;;;;;;;4.05;1.65;;;5.90;99.90;;;;;;5051460;28;20029;-81
2022/09/21 05:01:46;;;;;;;3.55;1.58;;;6.20;99.90;;;;;;5051500;28;20106;-81
2022/09/21 05:04:13;;;;;;;6.57;1.85;;;5.90;99.90;;;;;;5034582;28;20077;-81
2022/09/21 05:06:40;;;;;;;8.23;1.65;;;5.90;99.90;;;;;;5034854;28;20087;-80
2022/09/21 05:11:53;;;;;;;5.05;1.75;;;6.00;99.90;;;;;;5084272;28;20449;-80
2022/09/21 05:14:19;;;;;;;4.57;1.58;;;5.90;99.90;;;;;;5050104;28;20057;-80
2022/09/21 05:16:48;;;;;;;3.75;1.77;;;5.80;99.90;;;;;;5067350;28;20049;-81
2022/09/21 05:19:16;;;;;;;4.05;1.30;;;5.80;99.90;;;;;;5050784;28;20402;-80
2022/09/21 05:21:43;;;;;;;3.20;1.50;;;6.00;99.90;;;;;;5051080;28;20041;-81
2022/09/21 05:24:09;;;;;;;3.58;1.60;;;5.80;99.90;;;;;;5050505;28;20053;-80
2022/09/21 05:26:36;;;;;;;3.80;1.50;;;5.80;99.90;;;;;;5050767;28;20083;-81
2022/09/21 05:29:03;;;;;;;3.97;1.90;;;5.80;99.90;;;;;;5034329;28;20037;-81
2022/09/21 05:32:05;;;;;;;3.10;1.63;;;5.80;99.90;;;;;;5035421;28;20046;-80
2022/09/21 05:34:36;;;;;;;4.55;1.63;;;5.80;99.90;;;;;;5086100;28;20094;-81
2022/09/21 05:37:25;;;;;;;5.07;1.73;;;5.80;99.90;;;;;;5057376;28;20042;-81
2022/09/21 05:39:52;;;;;;;6.63;1.98;;;5.80;99.90;;;;;;5050592;28;20037;-81
2022/09/21 05:42:19;;;;;;;3.83;1.67;;;5.80;99.90;;;;;;5032958;28;20046;-80
2022/09/21 05:44:48;;;;;;;4.10;1.73;;;5.80;99.90;;;;;;5050799;28;20049;-79
2022/09/21 05:47:30;;;;;;;4.07;1.52;;;5.80;99.90;;;;;;5050917;28;20497;-81
2022/09/21 05:50:25;;;;;;;3.28;1.67;;;5.80;99.90;;;;;;5047102;28;20088;-80
2022/09/21 05:53:19;;;;;;;6.43;1.70;;;5.80;99.90;;;;;;5048324;28;20494;-81
2022/09/21 05:56:02;;;;;;;3.95;1.55;;;5.80;99.90;;;;;;5048120;28;20058;-82
2022/09/21 05:58:56;;;;;;;3.65;1.63;;;5.80;99.90;;;;;;5038585;28;20490;-80
2022/09/21 06:01:37;;;;;;;3.33;1.70;;;5.90;99.90;;;;;;5076694;28;20037;-80
2022/09/21 06:04:08;;;;;;;6.97;1.90;;;5.90;99.90;;;;;;5060327;28;20564;-81
2022/09/21 06:06:35;;;;;;;6.45;1.60;;;6.20;99.90;;;;;;5037543;28;20045;-80
2022/09/21 06:09:01;;;;;;;3.42;1.50;;;5.90;99.90;;;;;;5004464;28;20052;-80
2022/09/21 06:11:28;;;;;;;3.72;1.50;;;6.00;99.90;;;;;;5022840;28;20049;-81
2022/09/21 06:13:55;;;;;;;3.50;1.50;;;6.00;99.90;;;;;;5020904;28;20067;-80
2022/09/21 06:16:22;;;;;;;5.53;1.90;;;6.00;99.90;;;;;;5038252;28;20045;-80
2022/09/21 06:18:49;;;;;;;3.35;1.67;;;6.10;99.90;;;;;;5035790;28;20041;-81
2022/09/21 06:21:15;;;;;;;3.53;1.65;;;6.10;99.90;;;;;;5026559;28;20034;-81
2022/09/21 06:23:42;;;;;;;6.57;1.98;;;6.20;99.90;;;;;;5049355;28;20111;-81
2022/09/21 06:26:09;;;;;;;4.43;2.00;;;6.20;99.90;;;;;;5016624;28;20433;-81
2022/09/21 06:28:35;;;;;;;5.68;2.03;;;6.20;99.90;;;;;;5019454;28;20042;-81
2022/09/21 06:31:02;;;;;;;3.45;1.70;;;6.30;99.90;;;;;;4999010;28;20042;-81
2022/09/21 06:33:29;;;;;;;4.15;1.85;;;6.40;99.90;;;;;;5023190;28;20510;-81
2022/09/21 06:35:57;;;;;;;3.55;1.65;;;6.40;99.90;;;;;;5033510;28;20041;-81
2022/09/21 06:38:26;;;;;;;4.85;1.92;;;6.50;99.90;;;;;;5049404;28;20041;-81
2022/09/21 06:40:53;;;;;;;3.67;1.75;;;7.00;99.90;;;;;;5043500;28;20073;-81
2022/09/21 06:43:20;;;;;;;5.70;2.15;;;6.70;99.90;;;;;;5014162;28;20084;-81
2022/09/21 06:45:57;;;;;;;4.75;2.10;;;6.70;99.90;;;;;;5026839;28;20125;-81
2022/09/21 06:48:25;;;;;;;11.15;2.33;;;6.70;99.90;;;;;;5038222;28;20042;-81
2022/09/21 06:50:59;;;;;;;7.38;2.15;;;6.90;99.90;;;;;;5038734;28;20532;-81
2022/09/21 06:53:27;;;;;;;5.00;2.10;;;6.80;99.90;;;;;;5020434;28;20033;-81
2022/09/21 06:56:00;;;;;;;6.38;2.17;;;7.80;99.90;;;;;;5044137;28;20052;-81
2022/09/21 06:58:28;;;;;;;7.45;2.10;;;6.90;99.90;;;;;;5032820;28;20038;-81
2022/09/21 07:00:55;;;;;;;6.55;1.95;;;7.10;99.90;;;;;;5030793;28;20053;-81
2022/09/21 07:03:21;;;;;;;3.80;1.92;;;7.20;99.90;;;;;;5019893;28;20033;-81
2022/09/21 07:05:48;;;;;;;5.20;1.92;;;7.20;99.90;;;;;;5016950;28;20046;-81
2022/09/21 07:08:15;;;;;;;4.97;2.20;;;7.30;99.90;;;;;;5007074;28;20060;-82
2022/09/21 07:10:41;;;;;;;4.60;2.20;;;7.40;99.90;;;;;;5015488;28;20073;-82
2022/09/21 07:13:09;;;;;;;4.60;2.28;;;7.60;99.90;;;;;;5049618;28;20041;-82
2022/09/21 07:15:35;;;;;;;5.53;2.65;;;7.60;99.90;;;;;;5028175;28;20098;-81
2022/09/21 07:18:10;;;;;;;5.70;2.30;;;7.70;99.90;;;;;;5028519;28;20112;-83
2022/09/21 07:20:38;;;;;;;8.73;2.30;;;7.80;99.90;;;;;;5028978;28;20120;-82
2022/09/21 07:23:16;;;;;;;6.30;2.20;;;7.30;99.90;;;;;;5031188;28;20049;-84
2022/09/21 07:25:45;;;;;;;7.53;2.05;;;8.00;99.90;;;;;;5047835;28;20064;-82
2022/09/21 07:28:12;;;;;;;8.05;2.17;;;8.10;99.90;;;;;;5064722;28;20041;-82
2022/09/21 07:30:39;;;;;;;3.30;1.98;;;8.30;99.90;;;;;;5013092;28;20131;-82
2022/09/21 07:33:07;;;;;;;4.97;1.80;;;8.40;99.90;;;;;;5042675;28;20041;-82
2022/09/21 07:35:34;;;;;;;5.38;1.90;;;8.50;99.90;;;;;;5037425;28;20065;-82
2022/09/21 07:38:04;;;;;;;6.43;2.15;;;8.60;99.90;;;;;;5040725;28;20033;-82
2022/09/21 07:40:32;;;;;;;5.43;1.85;;;8.70;99.90;;;;;;5032424;28;20050;-82
2022/09/21 07:43:03;;;;;;;10.13;2.08;;;9.20;99.90;;;;;;5037064;28;20106;-83
2022/09/21 07:45:30;;;;;;;5.95;1.77;;;9.10;99.90;;;;;;5036202;28;20096;-83
2022/09/21 07:48:07;;;;;;;4.38;1.70;;;9.20;99.90;;;;;;5035898;28;20112;-83
2022/09/21 07:50:34;;;;;;;6.35;1.80;;;9.40;99.90;;;;;;5031011;28;20413;-83
2022/09/21 07:53:02;;;;;;;7.82;1.90;;;9.50;99.90;;;;;;5033922;28;20037;-83
2022/09/21 07:55:29;;;;;;;4.80;1.50;;;9.70;99.90;;;;;;5052023;28;20120;-84
2022/09/21 08:00:41;;;;;;;3.90;1.45;;;9.90;99.90;;;;;;5035270;28;20545;-86
2022/09/21 08:03:07;;;;;;;5.60;1.40;;;10.10;99.90;;;;;;5032857;28;20106;-86
2022/09/21 08:05:34;;;;;;;3.00;1.38;;;10.20;99.90;;;;;;5016375;28;20038;-86
2022/09/21 08:08:01;;;;;;;2.55;1.23;;;10.30;99.90;;;;;;5045493;28;20081;-87
2022/09/21 08:10:29;;;;;;;7.88;1.50;;;10.40;99.90;;;;;;5035794;28;20048;-86
2022/09/21 08:12:56;;;;;;;11.98;1.75;;;10.50;99.90;;;;;;5036142;28;20033;-87
2022/09/21 08:15:23;;;;;;;4.47;1.45;;;10.60;99.90;;;;;;5052087;28;20049;-86
2022/09/21 08:17:50;;;;;;;7.72;1.42;;;10.70;99.90;;;;;;5052185;28;20045;-86
2022/09/21 08:20:17;;;;;;;4.32;1.27;;;10.90;99.90;;;;;;5036118;28;20037;-86
2022/09/21 08:22:44;;;;;;;8.55;1.40;;;11.00;99.90;;;;;;5052308;28;20077;-86
2022/09/21 08:25:11;;;;;;;7.32;1.30;;;11.10;99.90;;;;;;5035920;28;20083;-86
2022/09/21 08:27:39;;;;;;;4.75;1.17;;;11.20;99.90;;;;;;5035847;28;20114;-86
2022/09/21 08:30:06;;;;;;;7.43;1.48;;;11.30;99.90;;;;;;5032438;28;20045;-86
2022/09/21 08:32:33;;;;;;;6.47;1.30;;;11.40;99.90;;;;;;5067528;28;20057;-86
2022/09/21 08:35:00;;;;;;;3.83;1.15;;;11.60;99.90;;;;;;5051856;28;20136;-86
2022/09/21 08:37:27;;;;;;;2.22;0.73;;;11.70;99.90;;;;;;5035298;28;20030;-86
2022/09/21 08:39:53;;;;;;;4.03;0.80;;;11.80;99.90;;;;;;5032377;28;20121;-86
2022/09/21 08:42:38;;;;;;;5.57;0.70;;;11.90;99.90;;;;;;5032032;28;20095;-86
2022/09/21 08:45:15;;;;;;;7.10;0.85;;;12.10;99.90;;;;;;5031871;28;20049;-85
2022/09/21 08:47:51;;;;;;;4.32;0.88;;;12.20;99.90;;;;;;5031838;28;20103;-86
2022/09/21 08:50:40;;;;;;;3.47;0.80;;;12.30;99.90;;;;;;5047535;28;20088;-86
2022/09/21 08:53:33;;;;;;;3.25;1.17;;;12.40;99.90;;;;;;5031975;28;20041;-86
2022/09/21 08:56:01;;;;;;;4.68;0.85;;;12.60;99.90;;;;;;5021318;28;20123;-86
2022/09/21 08:58:30;;;;;;;5.00;0.70;;;12.70;99.90;;;;;;5031401;28;20045;-86
2022/09/21 09:01:12;;;;;;;4.30;0.75;;;12.70;99.90;;;;;;5075887;28;20049;-87
2022/09/21 09:03:53;;;;;;;6.28;0.70;;;12.90;99.90;;;;;;5051265;28;20049;-86
2022/09/21 09:06:40;;;;;;;7.97;0.70;;;12.90;99.90;;;;;;5051419;28;20132;-86
2022/09/21 09:09:36;;;;;;;1.98;0.70;;;13.10;99.90;;;;;;5052151;28;20042;-86
2022/09/21 09:12:20;;;;;;;2.57;0.53;;;13.10;99.90;;;;;;5067560;28;20520;-86
2022/09/21 09:14:53;;;;;;;1.83;0.63;;;13.20;99.90;;;;;;5050695;28;20058;-86
2022/09/21 09:17:42;;;;;;;3.30;0.57;;;13.30;99.90;;;;;;5084197;28;20156;-87
2022/09/21 09:20:25;;;;;;;2.92;0.68;;;13.50;99.90;;;;;;5051117;28;20489;-86
2022/09/21 09:23:16;;;;;;;7.32;1.08;;;13.60;99.90;;;;;;5050710;28;20175;-87
2022/09/21 09:25:48;;;;;;;2.70;0.60;;;13.70;99.90;;;;;;5050800;28;20037;-87
2022/09/21 09:28:33;;;;;;;4.00;0.85;;;13.80;99.90;;;;;;5066969;28;20041;-86
2022/09/21 09:31:10;;;;;;;2.73;0.67;;;13.80;99.90;;;;;;5067955;28;20129;-87
2022/09/21 09:33:40;;;;;;;4.28;0.70;;;13.90;99.90;;;;;;5067417;28;20041;-87
2022/09/21 09:36:11;;;;;;;4.30;0.70;;;14.00;99.90;;;;;;5050997;28;20094;-87
2022/09/21 09:39:16;;;;;;;3.20;0.60;;;14.10;99.90;;;;;;5051117;28;20072;-86
2022/09/21 09:41:59;;;;;;;4.65;0.75;;;14.20;99.90;;;;;;4975045;28;20078;-87
2022/09/21 09:44:55;;;;;;;10.93;0.95;;;14.30;99.90;;;;;;5042960;28;20049;-86
2022/09/21 09:47:45;;;;;;;2.63;0.88;;;14.40;99.90;;;;;;5050929;28;20084;-86
2022/09/21 09:50:33;;;;;;;3.90;0.60;;;14.50;99.90;;;;;;5051186;28;20605;-87
2022/09/21 09:53:05;;;;;;;3.33;0.52;;;14.60;99.90;;;;;;5067348;28;20049;-87
2022/09/21 09:55:49;;;;;;;3.97;0.60;;;14.70;99.90;;;;;;5050736;28;20041;-87
2022/09/21 09:58:34;;;;;;;1.65;0.60;;;14.60;99.90;;;;;;5051203;28;20128;-87
2022/09/21 10:01:01;;;;;;;1.80;0.60;;;14.50;99.90;;;;;;5050472;28;20033;-87
2022/09/21 10:03:29;;;;;;;3.33;0.80;;;14.50;99.90;;;;;;5050998;28;20524;-87
2022/09/21 10:05:55;;;;;;;5.95;0.88;;;14.40;99.90;;;;;;5050703;28;20095;-87
2022/09/21 10:08:43;;;;;;;4.80;0.88;;;14.40;99.90;;;;;;5050543;28;20508;-87
2022/09/21 10:11:15;;;;;;;6.18;0.68;;;14.20;99.90;;;;;;5050380;28;20091;-87
2022/09/21 10:13:45;;;;;;;8.50;0.98;;;14.10;99.90;;;;;;5049636;28;20508;-87
2022/09/21 10:16:30;;;;;;;3.67;0.60;;;14.00;99.90;;;;;;5067064;28;20102;-87
2022/09/21 10:19:00;;;;;;;3.03;0.60;;;13.90;99.90;;;;;;5034205;28;20037;-87
2022/09/21 10:21:34;;;;;;;3.25;0.73;;;14.00;99.90;;;;;;5050252;28;20490;-87
2022/09/21 10:24:05;;;;;;;3.10;0.63;;;14.10;99.90;;;;;;5051029;28;20041;-87
2022/09/21 10:27:02;;;;;;;3.70;0.70;;;14.10;99.90;;;;;;5050149;28;20042;-87
2022/09/21 10:29:41;;;;;;;3.60;0.57;;;14.00;99.90;;;;;;5022412;28;20494;-87
2022/09/21 10:32:16;;;;;;;4.68;0.77;;;13.90;99.90;;;;;;5050469;28;20041;-87
2022/09/21 10:35:11;;;;;;;4.43;0.63;;;13.90;99.90;;;;;;5066401;28;20049;-87
2022/09/21 10:37:43;;;;;;;2.22;0.63;;;13.70;99.90;;;;;;5066746;28;20037;-87
2022/09/21 10:40:16;;;;;;;2.28;0.50;;;13.70;99.90;;;;;;5066906;28;20467;-87
2022/09/21 10:42:43;;;;;;;2.35;0.43;;;13.90;99.90;;;;;;5066022;28;20037;-87
2022/09/21 10:45:17;;;;;;;4.53;0.50;;;14.20;99.90;;;;;;5033951;28;20049;-87
2022/09/21 10:47:54;;;;;;;4.78;0.80;;;14.40;99.90;;;;;;5049609;28;20052;-87
2022/09/21 10:50:38;;;;;;;2.97;0.50;;;14.70;99.90;;;;;;5049666;28;20045;-87
2022/09/21 10:53:08;;;;;;;2.35;0.55;;;14.80;99.90;;;;;;5049994;28;20048;-88
2022/09/21 10:56:01;;;;;;;3.72;0.60;;;15.00;99.90;;;;;;5049917;28;20048;-87
2022/09/21 10:58:29;;;;;;;3.78;0.52;;;14.90;99.90;;;;;;5066054;28;20037;-87
2022/09/21 11:01:19;;;;;;;9.73;0.98;;;14.70;99.90;;;;;;5066457;28;20494;-87
2022/09/21 11:03:59;;;;;;;2.38;0.60;;;14.60;99.90;;;;;;5050072;28;20096;-87
2022/09/21 11:06:51;;;;;;;2.28;0.50;;;14.40;99.90;;;;;;5049782;28;20095;-87
2022/09/21 11:09:24;;;;;;;3.03;0.50;;;14.40;99.90;;;;;;5049554;28;20042;-87
2022/09/21 11:11:59;;;;;;;0.73;0.30;;;14.50;99.90;;;;;;5048946;28;20049;-87
2022/09/21 11:14:29;;;;;;;3.83;0.57;;;14.40;99.90;;;;;;5049707;28;20059;-87
2022/09/21 11:17:06;;;;;;;1.80;0.52;;;14.60;99.90;;;;;;5049576;28;20045;-87
2022/09/21 11:19:42;;;;;;;2.97;0.57;;;14.80;99.90;;;;;;5065908;28;20037;-87
2022/09/21 11:22:52;;;;;;;1.95;0.40;;;15.00;99.90;;;;;;5066051;28;20045;-88
2022/09/21 11:25:35;;;;;;;2.53;0.60;;;15.20;99.90;;;;;;5058801;28;20502;-87
2022/09/21 11:28:18;;;;;;;3.67;0.73;;;15.40;99.90;;;;;;5065704;28;20095;-87
2022/09/21 11:30:45;;;;;;;1.17;0.45;;;15.60;99.90;;;;;;5082178;28;20046;-87
2022/09/21 11:33:26;;;;;;;2.72;0.50;;;15.60;99.90;;;;;;5066411;28;20120;-88
2022/09/21 11:36:30;;;;;;;1.08;0.40;;;15.80;99.90;;;;;;5049170;28;20497;-87
2022/09/21 11:39:03;;;;;;;0.82;0.40;;;15.90;99.90;;;;;;5046326;28;20129;-88
2022/09/21 11:41:40;;;;;;;1.60;0.30;;;16.00;99.90;;;;;;5059489;28;20044;-88
2022/09/21 11:44:24;;;;;;;2.45;0.55;;;16.20;99.90;;;;;;5029728;28;20383;-88
2022/09/21 11:47:02;;;;;;;3.28;0.50;;;16.30;99.90;;;;;;5029532;28;20045;-86
2022/09/21 11:49:32;;;;;;;7.85;0.70;;;16.40;99.90;;;;;;5028636;28;20052;-87
2022/09/21 11:52:14;;;;;;;0.55;0.30;;;16.40;99.90;;;;;;5065070;28;20124;-87
2022/09/21 11:55:06;;;;;;;1.05;0.43;;;16.50;99.90;;;;;;5065418;28;20046;-87
2022/09/21 11:57:44;;;;;;;2.42;0.50;;;16.50;99.90;;;;;;5048438;28;20037;-87
2022/09/21 12:00:20;;;;;;;0.90;0.38;;;16.60;99.90;;;;;;5048764;28;20041;-87
2022/09/21 12:02:50;;;;;;;1.58;0.65;;;16.60;99.90;;;;;;5045466;28;20461;-86
2022/09/21 12:05:45;;;;;;;1.30;0.40;;;16.70;99.90;;;;;;5048295;28;20502;-84
2022/09/21 12:08:49;;;;;;;1.48;0.50;;;16.70;99.90;;;;;;5064370;28;20409;-84
2022/09/21 12:11:38;;;;;;;1.60;0.55;;;16.80;99.90;;;;;;5064498;28;20052;-84
2022/09/21 12:14:24;;;;;;;0.43;0.30;;;16.90;99.90;;;;;;5064671;28;20060;-84
2022/09/21 12:16:54;;;;;;;3.05;0.55;;;16.90;99.90;;;;;;5048005;28;20046;-84
2022/09/21 12:19:47;;;;;;;1.85;0.40;;;16.90;99.90;;;;;;5048197;28;20045;-84
2022/09/21 12:22:31;;;;;;;2.97;0.40;;;17.00;99.90;;;;;;5048454;28;20544;-84
2022/09/21 12:25:17;;;;;;;1.92;0.60;;;17.00;99.90;;;;;;5050684;28;20044;-84
2022/09/21 12:27:51;;;;;;;1.48;0.70;;;17.10;99.90;;;;;;5067816;28;20041;-85
2022/09/21 12:30:22;;;;;;;2.10;0.55;;;17.00;99.90;;;;;;5068512;28;20047;-85
2022/09/21 12:33:44;;;;;;;2.63;0.80;;;17.10;99.90;;;;;;5068310;28;20049;-84
2022/09/21 12:36:33;;;;;;;3.22;0.60;;;17.00;99.90;;;;;;5028977;28;20126;-84
2022/09/21 12:39:20;;;;;;;3.85;0.68;;;17.10;99.90;;;;;;5048329;28;20037;-84
2022/09/21 12:41:58;;;;;;;2.38;0.50;;;17.10;99.90;;;;;;5047751;28;20050;-83
2022/09/21 12:44:50;;;;;;;2.28;0.50;;;17.00;99.90;;;;;;5048073;28;20450;-84
2022/09/21 12:47:33;;;;;;;3.90;0.70;;;17.10;99.90;;;;;;5048322;28;20128;-84
2022/09/21 12:50:38;;;;;;;2.97;0.70;;;17.10;99.90;;;;;;5038807;28;20044;-84
2022/09/21 12:53:05;;;;;;;4.00;0.68;;;17.20;99.90;;;;;;5044070;28;20059;-84
2022/09/21 12:55:32;;;;;;;2.08;0.45;;;17.30;99.90;;;;;;5084101;28;20049;-84
2022/09/21 12:58:13;;;;;;;3.53;0.80;;;17.20;99.90;;;;;;5051105;28;20382;-84
2022/09/21 13:01:13;;;;;;;2.60;0.70;;;17.30;99.90;;;;;;5051025;28;20037;-84
2022/09/21 13:03:57;;;;;;;1.27;0.40;;;17.20;99.90;;;;;;5054021;28;20095;-84
2022/09/21 13:06:39;;;;;;;1.10;0.50;;;17.20;99.90;;;;;;5068114;28;20084;-84
2022/09/21 13:09:12;;;;;;;5.50;0.50;;;17.20;99.90;;;;;;5067688;28;20045;-84
2022/09/21 13:12:12;;;;;;;3.13;0.47;;;17.20;99.90;;;;;;5050465;28;20052;-84
2022/09/21 13:15:03;;;;;;;3.00;0.57;;;17.00;99.90;;;;;;5025654;28;20598;-84
2022/09/21 13:17:31;;;;;;;2.55;0.60;;;16.90;99.90;;;;;;5060753;28;20091;-84
2022/09/21 13:20:05;;;;;;;3.05;0.90;;;16.90;99.90;;;;;;5067335;28;20084;-84
2022/09/21 13:22:34;;;;;;;3.45;0.50;;;16.80;99.90;;;;;;5050796;28;20401;-83
2022/09/21 13:25:29;;;;;;;7.78;0.75;;;16.80;99.90;;;;;;5050336;28;20041;-84
2022/09/21 13:28:08;;;;;;;1.25;0.32;;;16.70;99.90;;;;;;5083588;28;20508;-83
2022/09/21 13:30:47;;;;;;;0.43;0.40;;;16.80;99.90;;;;;;5067532;28;20176;-84
2022/09/21 13:33:17;;;;;;;4.70;0.70;;;16.80;99.90;;;;;;5050461;28;20034;-83
2022/09/21 13:35:47;;;;;;;2.83;0.47;;;16.70;99.90;;;;;;5049917;28;20501;-84